Lufkin, TX

8:20 PM CDT on August 28, 2015 (GMT -0500)
Brookhollow | | Change Station
CLOSE
Current Station
Personal Weather Station
Location: Lufkin, TX
Elevation: 299 ft
Nearby Weather Stations

Elev 299 ft 31.31 °N, 94.76 °W | Updated 1 minute ago

Clear
Clear
82.6 °F
Feels Like 83 °F
N
0.0
Wind Variable Wind from SW

Today
High -- | Low -- °F
--% Chance of Precip.
Yesterday
High -- | Low -- °F
Precip. -- in
6:52 AM 7:47 PM
Waxing Gibbous, 99% visible
Pressure 29.93 in
Visibility 10.0 miles
Clouds Clear
Heat Index 83 °F
Dew Point 60 °F
Humidity 47%
Rainfall 0.00 in
Snow Depth Not available.
UV 0 out of 12
Pollen 7.90 out of 12
Air Quality Not available.
Flu Activity Not available.
METAR KLFK 290053Z AUTO 08003KT 10SM CLR 28/14 A2994 RMK AO2 SLP134 T02830144
Pressure 29.93 in
Visibility 10.0 miles
Clouds Clear
Heat Index 83 °F
Dew Point 60 °F
Humidity 47%
Rainfall 0.00 in
Snow Depth Not available.
UV 0 out of 12
Pollen 7.90 out of 12
Air Quality Not available.
Flu Activity Not available.
METAR KLFK 290053Z AUTO 08003KT 10SM CLR 28/14 A2994 RMK AO2 SLP134 T02830144

10-Day Weather Forecast

×

Almanac

Astronomy

Aug. 28, 2015 Rise Set
Actual Time
Civil Twilight
Nautical Twilight
Astronomical Twilight
Moon
Length of Visible Light
Length of Day
Tomorrow will be .
, % of the Moon is Illuminated

Today's Extremes

State Highs State Lows

Community

WunderPhotos

Upload Photos

1,850,566 photos uploaded!

WunderBlogs® & News

Nearby

Air Quality

  Air Quality AQ Index Pollutant
Not available.

Snow Depth

Station Depth Elevation

Earthquake Activity

City Distance Mag. Time & Date
Minimum magnitude displayed is 2.5.

Coastal Water Temperatures

Place Temperature

Stations

Nearby Weather Stations

Station Location Temp. Windchill Dew Point Humidity Wind Precip. Elev Updated Type